Kairyu — JD2981 — position and weather

sailwx.info

Track history (hours):
 
Tides and Currents Weather Stations Pressure Air Temp Water Temp Dewpoint Dewpoint Depression Visibility Wind Speed Wind Dir Waves Ship Positions

Kairyu

Last reported at 2017-Nov-10 04:43 UTC. Time now 2017-Nov-18 17:59 UTC.
Position N 34°38' E 134°60'.
Warning: this ship's position is 8 days out of date.

Length 104 m; draft 6.5 m.

Type: Tanker. MMSI: 431001061.

Date/timePositionNaut miles runAvg speedWind from/ knotsBaromVisibWave heightAir tempDewpointWater temp
2017-Nov-10 04:43N 34°38' E 134°60'417.7
2017-Nov-10 04:30N 34°36' E 135°04'1514.7
2017-Nov-10 03:27N 34°21' E 135°01'714.8
2017-Nov-10 03:00N 34°14' E 134°60'815.2
2017-Nov-10 02:30N 34°06' E 135°00'23811.9
2017-Nov-09 06:27N 35°05' E 139°41'715.2
2017-Nov-09 06:00N 35°11' E 139°45'612.7
2017-Nov-09 05:30N 35°17' E 139°45'713.3
2017-Nov-09 05:00N 35°23' E 139°43'714.7
2017-Nov-09 04:30N 35°29' E 139°48'2 5.0
2017-Nov-09 04:01N 35°30' E 139°45'0 0.0
2017-Nov-08 23:48N 35°30' E 139°45'0 0.7
2017-Nov-08 23:30N 35°30' E 139°45'3 6.2
2017-Nov-08 23:00N 35°28' E 139°42'3 6.4
2017-Nov-08 22:30N 35°26' E 139°45'2 3.4
2017-Nov-08 21:58N 35°24' E 139°46'0 0.1
2017-Nov-08 21:19N 35°24' E 139°46'0 0.1
2017-Nov-08 20:58N 35°24' E 139°46'0 0.0
2017-Nov-08 20:28N 35°24' E 139°46'0 0.1
2017-Nov-08 19:58N 35°24' E 139°46'0 0.0
2017-Nov-08 19:28N 35°24' E 139°46'1 1.4
2017-Nov-08 19:00N 35°24' E 139°45'510.0
2017-Nov-08 18:30N 35°19' E 139°44'612.3
2017-Nov-08 18:00N 35°13' E 139°47'813.5
2017-Nov-08 17:23N 35°05' E 139°44'  
2017-Nov-05 06:29N 34°59' E 139°32'714.1
2017-Nov-05 06:01N 35°03' E 139°38'815.3
2017-Nov-05 05:30N 35°09' E 139°44'713.8
2017-Nov-05 05:01N 35°15' E 139°46'612.4
2017-Nov-05 04:30N 35°21' E 139°42'713.7
2017-Nov-05 04:00N 35°27' E 139°46'3 6.2
2017-Nov-05 03:30N 35°30' E 139°45'0 0.0
2017-Nov-04 23:20N 35°30' E 139°45'0 0.0
2017-Nov-04 23:00N 35°30' E 139°45'2 3.1
2017-Nov-04 22:30N 35°30' E 139°43'3 6.7
2017-Nov-04 22:00N 35°26' E 139°45'2 4.4
2017-Nov-04 21:30N 35°24' E 139°45'0 0.1
2017-Nov-04 21:00N 35°24' E 139°45'0 0.0
2017-Nov-04 20:30N 35°24' E 139°45'0 0.0
2017-Nov-04 19:54N 35°24' E 139°45'0 0.0
2017-Nov-04 19:30N 35°24' E 139°45'0 0.1
2017-Nov-04 18:57N 35°24' E 139°45'0 0.1
2017-Nov-04 18:30N 35°24' E 139°45'0 0.1
2017-Nov-04 18:00N 35°24' E 139°45'0 0.0
2017-Nov-04 17:27N 35°24' E 139°45'0 0.1
2017-Nov-04 16:54N 35°24' E 139°45'0 0.0
2017-Nov-04 16:30N 35°24' E 139°45'0 0.0
2017-Nov-04 16:00N 35°24' E 139°45'0 0.1
2017-Nov-04 15:30N 35°24' E 139°45'0 0.0
2017-Nov-04 15:00N 35°24' E 139°45'0 0.0
2017-Nov-04 14:30N 35°24' E 139°45'0 0.1
2017-Nov-04 14:00N 35°24' E 139°45'0 0.0
2017-Nov-04 13:30N 35°24' E 139°45'0 0.0
2017-Nov-04 13:00N 35°24' E 139°45'0 0.0
2017-Nov-04 12:30N 35°24' E 139°45'0 0.0
2017-Nov-04 12:00N 35°24' E 139°45'0 0.0
2017-Nov-04 11:30N 35°24' E 139°45'0 0.0
2017-Nov-04 11:00N 35°24' E 139°45'0 0.0
2017-Nov-04 10:30N 35°24' E 139°45'0 0.1
2017-Nov-04 10:00N 35°24' E 139°45'0 0.0
2017-Nov-04 09:30N 35°24' E 139°45'0 0.0
2017-Nov-04 09:00N 35°24' E 139°45'0 0.0
2017-Nov-04 08:30N 35°24' E 139°45'0 0.2
2017-Nov-04 08:00N 35°24' E 139°45'0 0.2
2017-Nov-04 07:30N 35°24' E 139°45'0 0.1
2017-Nov-04 07:00N 35°24' E 139°45'0 0.0
2017-Nov-04 06:30N 35°24' E 139°45'0 0.0
2017-Nov-04 06:00N 35°24' E 139°45'0 0.0
2017-Nov-04 05:30N 35°24' E 139°45'0 0.0
2017-Nov-04 05:00N 35°24' E 139°45'0 0.0
2017-Nov-04 04:30N 35°24' E 139°45'0 0.0
2017-Nov-04 04:00N 35°24' E 139°45'1 2.5
2017-Nov-04 03:31N 35°23' E 139°45'611.7
2017-Nov-04 03:00N 35°17' E 139°45'611.8
2017-Nov-04 02:30N 35°12' E 139°47'713.5
2017-Nov-04 02:00N 35°05' E 139°45'713.5
2017-Nov-04 01:30N 35°00' E 139°39'  
Track history (hours):
 
Tides and Currents Weather Stations Pressure Air Temp Water Temp Dewpoint Dewpoint Depression Visibility Wind Speed Wind Dir Waves Ship Positions

Kairyu

Last reported at 2017-Nov-10 04:43 UTC. Time now 2017-Nov-18 17:59 UTC.
Position N 34°38' E 134°60'.
Warning: this ship's position is 8 days out of date.

Length 104 m; draft 6.5 m.

Type: Tanker. MMSI: 431001061.

Date/timePositionNaut miles runAvg speedWind from/ knotsBaromVisibWave heightAir tempDewpointWater temp
2017-Nov-10 04:43N 34°38' E 134°60'417.7
2017-Nov-10 04:30N 34°36' E 135°04'1514.7
2017-Nov-10 03:27N 34°21' E 135°01'714.8
2017-Nov-10 03:00N 34°14' E 134°60'815.2
2017-Nov-10 02:30N 34°06' E 135°00'23811.9
2017-Nov-09 06:27N 35°05' E 139°41'715.2
2017-Nov-09 06:00N 35°11' E 139°45'612.7
2017-Nov-09 05:30N 35°17' E 139°45'713.3
2017-Nov-09 05:00N 35°23' E 139°43'714.7
2017-Nov-09 04:30N 35°29' E 139°48'2 5.0
2017-Nov-09 04:01N 35°30' E 139°45'0 0.0
2017-Nov-08 23:48N 35°30' E 139°45'0 0.7
2017-Nov-08 23:30N 35°30' E 139°45'3 6.2
2017-Nov-08 23:00N 35°28' E 139°42'3 6.4
2017-Nov-08 22:30N 35°26' E 139°45'2 3.4
2017-Nov-08 21:58N 35°24' E 139°46'0 0.1
2017-Nov-08 21:19N 35°24' E 139°46'0 0.1
2017-Nov-08 20:58N 35°24' E 139°46'0 0.0
2017-Nov-08 20:28N 35°24' E 139°46'0 0.1
2017-Nov-08 19:58N 35°24' E 139°46'0 0.0
2017-Nov-08 19:28N 35°24' E 139°46'1 1.4
2017-Nov-08 19:00N 35°24' E 139°45'510.0
2017-Nov-08 18:30N 35°19' E 139°44'612.3
2017-Nov-08 18:00N 35°13' E 139°47'813.5
2017-Nov-08 17:23N 35°05' E 139°44'  
2017-Nov-05 06:29N 34°59' E 139°32'714.1
2017-Nov-05 06:01N 35°03' E 139°38'815.3
2017-Nov-05 05:30N 35°09' E 139°44'713.8
2017-Nov-05 05:01N 35°15' E 139°46'612.4
2017-Nov-05 04:30N 35°21' E 139°42'713.7
2017-Nov-05 04:00N 35°27' E 139°46'3 6.2
2017-Nov-05 03:30N 35°30' E 139°45'0 0.0
2017-Nov-04 23:20N 35°30' E 139°45'0 0.0
2017-Nov-04 23:00N 35°30' E 139°45'2 3.1
2017-Nov-04 22:30N 35°30' E 139°43'3 6.7
2017-Nov-04 22:00N 35°26' E 139°45'2 4.4
2017-Nov-04 21:30N 35°24' E 139°45'0 0.1
2017-Nov-04 21:00N 35°24' E 139°45'0 0.0
2017-Nov-04 20:30N 35°24' E 139°45'0 0.0
2017-Nov-04 19:54N 35°24' E 139°45'0 0.0
2017-Nov-04 19:30N 35°24' E 139°45'0 0.1
2017-Nov-04 18:57N 35°24' E 139°45'0 0.1
2017-Nov-04 18:30N 35°24' E 139°45'0 0.1
2017-Nov-04 18:00N 35°24' E 139°45'0 0.0
2017-Nov-04 17:27N 35°24' E 139°45'0 0.1
2017-Nov-04 16:54N 35°24' E 139°45'0 0.0
2017-Nov-04 16:30N 35°24' E 139°45'0 0.0
2017-Nov-04 16:00N 35°24' E 139°45'0 0.1
2017-Nov-04 15:30N 35°24' E 139°45'0 0.0
2017-Nov-04 15:00N 35°24' E 139°45'0 0.0
2017-Nov-04 14:30N 35°24' E 139°45'0 0.1
2017-Nov-04 14:00N 35°24' E 139°45'0 0.0
2017-Nov-04 13:30N 35°24' E 139°45'0 0.0
2017-Nov-04 13:00N 35°24' E 139°45'0 0.0
2017-Nov-04 12:30N 35°24' E 139°45'0 0.0
2017-Nov-04 12:00N 35°24' E 139°45'0 0.0
2017-Nov-04 11:30N 35°24' E 139°45'0 0.0
2017-Nov-04 11:00N 35°24' E 139°45'0 0.0
2017-Nov-04 10:30N 35°24' E 139°45'0 0.1
2017-Nov-04 10:00N 35°24' E 139°45'0 0.0
2017-Nov-04 09:30N 35°24' E 139°45'0 0.0
2017-Nov-04 09:00N 35°24' E 139°45'0 0.0
2017-Nov-04 08:30N 35°24' E 139°45'0 0.2
2017-Nov-04 08:00N 35°24' E 139°45'0 0.2
2017-Nov-04 07:30N 35°24' E 139°45'0 0.1
2017-Nov-04 07:00N 35°24' E 139°45'0 0.0
2017-Nov-04 06:30N 35°24' E 139°45'0 0.0
2017-Nov-04 06:00N 35°24' E 139°45'0 0.0
2017-Nov-04 05:30N 35°24' E 139°45'0 0.0
2017-Nov-04 05:00N 35°24' E 139°45'0 0.0
2017-Nov-04 04:30N 35°24' E 139°45'0 0.0
2017-Nov-04 04:00N 35°24' E 139°45'1 2.5
2017-Nov-04 03:31N 35°23' E 139°45'611.7
2017-Nov-04 03:00N 35°17' E 139°45'611.8
2017-Nov-04 02:30N 35°12' E 139°47'713.5
2017-Nov-04 02:00N 35°05' E 139°45'713.5
2017-Nov-04 01:30N 35°00' E 139°39'  

Dump ship's entire track history